Time;durP1;ratioP1;P1;durP2;ratioP2;P2;SDS_P1;SDS_P2;PMS_P1;PMS_P2;Temp;Humidity;BMP_temperature;BMP_pressure;BME280_temperature;BME280_humidity;BME280_pressure;Samples;Min_cycle;Max_cycle;Signal;HPM_P1;HPM_P2
2022/02/18 17:44:32;;;;;;;2.80;0.98;;;;;;;14.99;53.14;98442.59;1088424;46;20094;-78
2022/02/18 18:25:28;;;;;;;3.38;1.33;;;;;;;10.90;54.07;98727.53;1086762;54;20038;-80
2022/02/18 18:26:31;;;;;;;2.65;0.70;;;;;;;11.02;54.44;98717.25;1088116;54;20026;-79
2022/02/18 18:29:34;;;;;;;1.95;0.57;;;;;;;11.05;54.22;98754.34;1087962;39;20575;-79
2022/02/18 18:30:39;;;;;;;2.58;0.80;;;;;;;11.11;54.41;98752.78;1087146;54;20065;-77
2022/02/18 18:31:41;;;;;;;1.67;0.52;;;;;;;11.13;54.32;98756.13;1086825;54;20057;-79
2022/02/18 18:32:45;;;;;;;2.25;0.55;;;;;;;11.04;54.49;98758.88;1087308;54;20042;-78
2022/02/18 18:33:48;;;;;;;3.75;0.90;;;;;;;11.16;54.45;98759.25;1087170;54;20050;-78
2022/02/18 18:34:53;;;;;;;1.67;0.63;;;;;;;11.11;54.60;98761.63;1087328;54;20018;-79
2022/02/18 18:35:54;;;;;;;2.40;0.52;;;;;;;11.09;54.49;98777.06;1087586;54;20049;-79
2022/02/18 18:36:59;;;;;;;1.80;0.52;;;;;;;10.99;53.53;98771.94;1087460;54;20046;-79
2022/02/18 18:38:03;;;;;;;3.10;0.65;;;;;;;10.85;53.12;98764.69;1087408;54;20045;-79
2022/02/18 18:39:05;;;;;;;2.53;0.60;;;;;;;10.92;53.04;98762.97;1086944;46;20077;-80
2022/02/18 18:40:11;;;;;;;1.92;0.60;;;;;;;11.03;52.78;98767.91;1087066;54;20026;-81
2022/02/18 18:41:16;;;;;;;1.90;0.55;;;;;;;11.01;51.90;98769.06;1087084;54;20049;-79
2022/02/18 18:42:20;;;;;;;1.42;0.50;;;;;;;11.10;52.29;98775.19;1087202;54;20563;-79
2022/02/18 18:43:25;;;;;;;3.10;0.70;;;;;;;10.96;52.15;98772.28;1087500;54;20046;-78
2022/02/18 18:44:27;;;;;;;2.67;0.60;;;;;;;11.02;52.18;98784.94;1087621;39;20427;-80
2022/02/18 18:45:32;;;;;;;2.15;0.70;;;;;;;10.91;51.84;98790.72;1087071;54;20035;-79
2022/02/18 18:46:36;;;;;;;4.32;0.65;;;;;;;10.92;51.63;98784.34;1087192;54;20054;-80
2022/02/18 18:47:41;;;;;;;2.97;0.80;;;;;;;10.85;51.46;98786.06;1088568;39;20466;-80
2022/02/18 18:48:43;;;;;;;2.30;0.70;;;;;;;10.81;50.88;98798.97;1087375;46;20039;-79
2022/02/18 18:49:48;;;;;;;1.98;0.65;;;;;;;10.78;51.49;98791.28;1087089;54;20074;-79
2022/02/18 18:50:53;;;;;;;2.90;0.65;;;;;;;10.73;50.87;98793.66;1087390;54;20038;-80
2022/02/18 18:51:56;;;;;;;2.17;0.60;;;;;;;10.71;51.18;98785.81;1087473;54;20031;-79
2022/02/18 18:53:00;;;;;;;1.88;0.52;;;;;;;10.74;50.11;98795.31;1087702;54;20127;-80
2022/02/18 18:54:02;;;;;;;2.38;0.57;;;;;;;10.82;50.05;98802.47;1087755;46;20039;-80
2022/02/18 18:55:07;;;;;;;2.22;0.80;;;;;;;10.86;50.36;98811.81;1086701;54;20034;-80
2022/02/18 18:56:09;;;;;;;2.47;0.68;;;;;;;10.67;50.66;98819.25;1087545;39;20406;-81
2022/02/18 18:57:16;;;;;;;2.08;0.60;;;;;;;10.72;50.67;98819.56;1087386;54;20026;-80
2022/02/18 18:58:19;;;;;;;2.63;0.70;;;;;;;10.70;50.72;98815.41;1087280;54;20038;-80
2022/02/18 18:59:23;;;;;;;3.35;0.70;;;;;;;10.80;50.31;98826.72;1086767;54;20042;-80
2022/02/18 19:00:32;;;;;;;4.15;0.90;;;;;;;10.71;50.99;98823.22;1086925;54;20077;-80
2022/02/18 19:01:35;;;;;;;2.90;0.68;;;;;;;10.72;51.07;98816.06;1087233;54;20086;-81
2022/02/18 19:02:40;;;;;;;3.58;0.73;;;;;;;10.64;50.95;98827.63;1088558;39;20434;-80
2022/02/18 19:03:41;;;;;;;2.63;0.60;;;;;;;10.66;51.11;98830.97;1087824;54;20023;-78
2022/02/18 19:04:45;;;;;;;3.55;0.70;;;;;;;10.57;51.02;98819.47;1087852;54;20030;-80
2022/02/18 19:05:49;;;;;;;2.85;0.88;;;;;;;10.65;51.42;98823.94;1087826;54;20030;-79
2022/02/18 19:06:53;;;;;;;2.58;0.75;;;;;;;10.48;51.87;98819.69;1087920;54;20014;-79
2022/02/18 19:07:57;;;;;;;3.72;0.60;;;;;;;10.44;52.05;98837.88;1087851;54;20061;-79
2022/02/18 19:09:01;;;;;;;3.25;0.70;;;;;;;10.50;52.14;98825.69;1087531;54;20030;-80
2022/02/18 19:10:04;;;;;;;2.60;0.90;;;;;;;10.58;52.41;98839.84;1087193;54;20039;-78
2022/02/18 19:11:09;;;;;;;3.42;0.75;;;;;;;10.48;52.66;98835.72;1087640;54;20158;-79
2022/02/18 19:12:16;;;;;;;4.25;0.63;;;;;;;10.32;53.27;98840.06;1087519;54;20038;-78
2022/02/18 19:13:20;;;;;;;3.00;0.77;;;;;;;10.22;53.93;98850.97;1088094;54;20046;-78
2022/02/18 19:14:26;;;;;;;2.55;0.60;;;;;;;10.33;53.61;98849.75;1087581;54;20631;-80
2022/02/18 19:15:29;;;;;;;2.42;0.70;;;;;;;10.20;54.25;98844.97;1088219;54;20038;-78
2022/02/18 19:16:33;;;;;;;3.33;0.70;;;;;;;10.23;54.23;98851.78;1090527;46;20018;-78
2022/02/18 19:17:38;;;;;;;5.60;0.98;;;;;;;10.12;54.67;98861.00;1090024;46;20010;-81
2022/02/18 19:18:41;;;;;;;3.45;0.80;;;;;;;10.19;55.13;98853.16;1094873;39;20563;-78
2022/02/18 19:19:46;;;;;;;3.83;0.88;;;;;;;10.16;54.99;98846.31;1089367;46;20054;-78
2022/02/18 19:20:47;;;;;;;6.15;1.30;;;;;;;10.05;54.88;98842.16;1088138;54;20015;-81
2022/02/18 19:21:52;;;;;;;3.65;1.00;;;;;;;10.06;54.91;98857.19;1088190;54;20035;-78
2022/02/18 19:22:54;;;;;;;5.15;1.20;;;;;;;9.89;55.39;98848.38;1087841;54;20038;-77
2022/02/18 19:23:59;;;;;;;3.22;0.98;;;;;;;9.92;55.39;98856.06;1087974;46;20030;-78
2022/02/18 19:25:00;;;;;;;2.67;0.73;;;;;;;9.81;55.89;98857.25;1087465;54;20038;-78
2022/02/18 19:26:05;;;;;;;4.30;0.75;;;;;;;9.94;55.99;98864.72;1086852;54;20030;-80
2022/02/18 19:27:07;;;;;;;3.20;0.77;;;;;;;9.77;56.16;98855.91;1087162;54;20062;-80
2022/02/18 19:28:15;;;;;;;3.08;0.80;;;;;;;9.67;56.47;98857.91;1091825;39;20527;-80
2022/02/18 19:29:22;;;;;;;4.50;0.70;;;;;;;9.76;56.67;98867.56;1087148;54;20061;-82
2022/02/18 19:32:03;;;;;;;4.15;1.00;;;;;;;9.70;57.35;98868.25;1087167;54;20034;-78
2022/02/18 19:33:04;;;;;;;4.40;0.95;;;;;;;9.65;58.10;98867.91;1088027;54;20045;-78
2022/02/18 19:34:09;;;;;;;2.60;0.70;;;;;;;9.61;58.23;98869.28;1087845;54;20038;-79
2022/02/18 19:35:16;;;;;;;3.90;0.95;;;;;;;9.70;58.71;98878.09;1088884;46;20049;-78
2022/02/18 19:36:20;;;;;;;4.00;0.85;;;;;;;9.61;58.58;98878.09;1087191;54;20047;-79
2022/02/18 19:37:23;;;;;;;4.13;1.10;;;;;;;9.57;58.85;98884.78;1086572;54;20599;-78
2022/02/18 19:38:30;;;;;;;11.35;1.15;;;;;;;9.59;59.42;98865.94;1087140;54;20035;-81
2022/02/18 19:39:34;;;;;;;3.53;1.10;;;;;;;9.42;59.62;98865.09;1087509;54;20023;-80
2022/02/18 19:40:39;;;;;;;4.22;1.00;;;;;;;9.48;59.79;98865.25;1088073;39;20468;-80
2022/02/18 19:41:44;;;;;;;5.28;1.33;;;;;;;9.38;60.04;98871.75;1087755;54;20031;-80
2022/02/18 19:42:45;;;;;;;4.32;1.08;;;;;;;9.40;60.12;98880.44;1087581;54;20030;-79
2022/02/18 19:43:52;;;;;;;4.72;1.10;;;;;;;9.39;60.10;98876.94;1088817;46;20034;-81
2022/02/18 19:44:54;;;;;;;3.10;0.90;;;;;;;9.39;60.25;98879.59;1087181;54;20034;-78
2022/02/18 19:45:58;;;;;;;3.55;1.08;;;;;;;9.42;60.17;98881.09;1087461;54;20042;-82
2022/02/18 19:47:02;;;;;;;4.25;1.13;;;;;;;9.26;60.69;98871.25;1090776;39;20442;-79
2022/02/18 19:48:14;;;;;;;3.53;1.00;;;;;;;9.27;60.30;98881.75;1087614;54;20573;-79
2022/02/18 19:49:15;;;;;;;3.95;1.00;;;;;;;9.36;59.90;98885.25;1087407;54;20041;-80
2022/02/18 19:50:19;;;;;;;5.05;1.27;;;;;;;9.41;59.62;98882.94;1087541;54;20068;-80
2022/02/18 19:51:21;;;;;;;3.65;0.98;;;;;;;9.27;60.48;98876.41;1087772;54;20120;-80
2022/02/18 19:52:30;;;;;;;4.93;1.00;;;;;;;9.29;60.47;98885.09;1087653;54;20019;-81
2022/02/18 19:53:32;;;;;;;5.75;1.52;;;;;;;9.26;60.63;98877.41;1087719;54;20520;-80
2022/02/18 19:54:36;;;;;;;5.55;0.95;;;;;;;9.33;60.90;98880.25;1087700;54;20038;-80
2022/02/18 19:55:37;;;;;;;8.05;2.58;;;;;;;9.27;60.31;98883.56;1087747;54;20575;-77
2022/02/18 19:56:42;;;;;;;4.88;1.10;;;;;;;9.31;60.33;98876.91;1087675;54;20042;-79
2022/02/18 19:57:44;;;;;;;6.47;1.40;;;;;;;9.29;60.22;98886.91;1088236;39;20498;-80
2022/02/18 19:58:48;;;;;;;5.55;1.02;;;;;;;9.26;60.72;98881.94;1087441;54;20034;-79
2022/02/18 19:59:55;;;;;;;4.22;1.10;;;;;;;9.32;60.35;98894.59;1087987;39;20437;-81
2022/02/18 20:00:57;;;;;;;5.30;1.20;;;;;;;9.28;60.28;98875.44;1087667;54;20035;-80
2022/02/18 20:02:02;;;;;;;5.22;1.27;;;;;;;9.30;60.30;98886.78;1087068;54;20035;-79
2022/02/18 20:03:04;;;;;;;3.45;0.90;;;;;;;9.39;60.23;98898.25;1087035;54;20042;-78
2022/02/18 20:04:08;;;;;;;3.92;1.00;;;;;;;9.57;59.44;98899.94;1087331;54;20038;-79
2022/02/18 20:05:10;;;;;;;4.43;1.17;;;;;;;9.61;59.50;98911.97;1087386;54;20034;-80
2022/02/18 20:06:18;;;;;;;4.93;1.20;;;;;;;9.53;59.48;98902.09;1087471;54;20042;-78
2022/02/18 20:07:20;;;;;;;5.95;1.55;;;;;;;9.50;59.80;98889.94;1087248;54;20065;-79
2022/02/18 20:08:26;;;;;;;4.25;1.15;;;;;;;9.36;59.64;98901.25;1087219;54;20065;-80
2022/02/18 20:09:30;;;;;;;5.18;1.08;;;;;;;9.41;59.40;98896.28;1090516;39;20493;-79
2022/02/18 20:10:34;;;;;;;3.78;0.93;;;;;;;9.39;58.87;98898.25;1087413;54;20023;-82
2022/02/18 20:11:38;;;;;;;6.97;1.45;;;;;;;9.46;58.88;98904.59;1087307;54;20037;-79
2022/02/18 20:12:40;;;;;;;8.50;1.67;;;;;;;9.55;58.51;98920.59;1087573;54;20035;-79
2022/02/18 20:13:44;;;;;;;5.47;1.33;;;;;;;9.49;58.40;98922.94;1087445;54;20041;-77
2022/02/18 20:14:48;;;;;;;6.75;1.90;;;;;;;9.52;58.05;98930.63;1087648;54;20038;-79
2022/02/18 20:15:52;;;;;;;6.57;1.67;;;;;;;9.49;57.93;98928.28;1087472;54;20123;-79
2022/02/18 20:16:57;;;;;;;7.15;1.40;;;;;;;9.64;57.87;98920.47;1087141;54;20042;-80
2022/02/18 20:17:58;;;;;;;5.28;1.30;;;;;;;9.62;57.42;98925.13;1086825;54;20054;-81
2022/02/18 20:19:02;;;;;;;5.97;1.55;;;;;;;9.61;57.24;98927.97;1086639;54;20128;-79
2022/02/18 20:20:05;;;;;;;6.07;1.20;;;;;;;9.59;57.20;98940.63;1086969;54;20062;-81
2022/02/18 20:21:12;;;;;;;6.32;1.20;;;;;;;9.64;57.46;98932.94;1087493;46;20068;-80
2022/02/18 20:22:16;;;;;;;5.78;1.20;;;;;;;9.69;57.40;98938.66;1086963;54;20026;-79
2022/02/18 20:23:21;;;;;;;6.55;1.48;;;;;;;9.69;56.82;98935.97;1087139;54;20572;-81
2022/02/18 20:24:25;;;;;;;8.05;1.77;;;;;;;9.68;56.77;98928.97;1086913;54;20082;-81
2022/02/18 20:25:31;;;;;;;3.95;0.98;;;;;;;9.79;56.71;98942.00;1087168;54;20038;-81
2022/02/18 20:26:32;;;;;;;5.10;1.17;;;;;;;9.77;56.71;98943.97;1086598;54;20073;-80
2022/02/18 20:27:37;;;;;;;6.53;1.38;;;;;;;9.83;56.84;98942.47;1086230;54;20034;-80
2022/02/18 20:28:41;;;;;;;5.95;1.45;;;;;;;9.80;56.75;98941.00;1086885;54;20042;-80
2022/02/18 20:29:45;;;;;;;5.50;1.33;;;;;;;9.84;56.68;98950.31;1086990;46;20146;-80
2022/02/18 20:30:49;;;;;;;5.22;1.60;;;;;;;9.82;56.43;98946.16;1086921;54;20952;-80
2022/02/18 20:31:56;;;;;;;6.40;1.45;;;;;;;9.79;56.61;98939.31;1087144;54;20034;-81
2022/02/18 20:32:57;;;;;;;5.28;1.67;;;;;;;9.86;56.43;98942.16;1087115;54;20042;-80
2022/02/18 20:34:02;;;;;;;7.55;1.85;;;;;;;9.87;56.06;98937.63;1087190;54;20042;-80
2022/02/18 20:35:08;;;;;;;4.88;1.48;;;;;;;9.83;55.55;98943.31;1090040;46;20034;-79
2022/02/18 20:36:09;;;;;;;4.60;1.45;;;;;;;9.92;55.51;98957.50;1086867;54;20046;-79
2022/02/18 20:37:14;;;;;;;6.68;1.17;;;;;;;9.84;55.23;98954.84;1087453;54;20019;-80
2022/02/18 20:38:16;;;;;;;9.07;1.88;;;;;;;9.88;55.59;98950.00;1087655;54;20042;-80
2022/02/18 20:39:20;;;;;;;5.82;1.30;;;;;;;9.83;55.44;98953.16;1087956;54;20041;-80
2022/02/18 20:40:24;;;;;;;6.00;1.27;;;;;;;9.78;55.94;98961.66;1087867;54;20038;-79
2022/02/18 20:41:26;;;;;;;6.68;1.40;;;;;;;9.84;55.71;98968.19;1087996;54;20035;-81
2022/02/18 20:42:31;;;;;;;6.30;1.50;;;;;;;9.96;55.25;98968.66;1089035;46;20045;-80
2022/02/18 20:43:35;;;;;;;5.18;1.48;;;;;;;9.78;55.79;98956.31;1087977;54;20038;-78
2022/02/18 20:44:39;;;;;;;9.82;1.58;;;;;;;9.90;55.81;98970.16;1087837;54;20054;-79
2022/02/18 20:45:45;;;;;;;5.05;1.10;;;;;;;9.83;55.46;98970.00;1088034;54;20049;-78
2022/02/18 20:46:47;;;;;;;7.75;1.65;;;;;;;9.84;55.43;98961.00;1088055;54;20042;-78
2022/02/18 20:47:54;;;;;;;4.78;1.10;;;;;;;9.92;55.39;98962.84;1087620;54;20622;-78
2022/02/18 20:48:55;;;;;;;6.82;1.90;;;;;;;9.95;55.28;98977.69;1087681;54;20033;-80
2022/02/18 20:49:59;;;;;;;6.03;1.27;;;;;;;9.89;55.01;98965.00;1087667;54;20042;-79
2022/02/18 20:51:01;;;;;;;5.95;1.60;;;;;;;9.87;55.08;98981.16;1088765;46;20038;-79
2022/02/18 20:52:05;;;;;;;6.22;1.52;;;;;;;9.99;54.84;98971.03;1087081;54;20686;-78
2022/02/18 20:53:08;;;;;;;8.43;2.00;;;;;;;9.82;55.14;98979.00;1087318;54;20038;-81
2022/02/18 20:54:12;;;;;;;7.63;1.67;;;;;;;9.87;55.11;98985.69;1087870;54;20030;-79
2022/02/18 20:55:17;;;;;;;6.60;1.83;;;;;;;9.87;55.23;98988.34;1087999;54;20046;-78
2022/02/18 20:56:18;;;;;;;5.97;1.67;;;;;;;9.81;54.89;98965.84;1088033;54;20604;-79
2022/02/18 20:57:22;;;;;;;7.60;1.70;;;;;;;9.79;54.99;98991.84;1088086;54;20023;-78
2022/02/18 20:58:24;;;;;;;5.63;1.48;;;;;;;9.78;55.11;98995.50;1087899;54;20035;-79
2022/02/18 20:59:28;;;;;;;10.10;2.53;;;;;;;9.93;54.94;99001.03;1088026;54;20038;-79
2022/02/18 21:00:33;;;;;;;6.07;1.50;;;;;;;9.98;54.71;98993.38;1090041;39;20472;-79
2022/02/18 21:01:34;;;;;;;7.18;1.98;;;;;;;10.01;54.71;98985.03;1087965;54;20034;-79
2022/02/18 21:02:39;;;;;;;6.93;1.70;;;;;;;9.97;55.21;98995.19;1088040;54;20041;-79
2022/02/18 21:03:43;;;;;;;6.55;1.63;;;;;;;9.98;55.16;98988.03;1088008;54;20054;-77
2022/02/18 21:04:48;;;;;;;6.97;1.40;;;;;;;9.92;55.03;99004.72;1088178;54;20035;-77
2022/02/18 21:05:53;;;;;;;7.70;1.90;;;;;;;9.92;55.21;99015.41;1088008;54;20015;-77
2022/02/18 21:06:57;;;;;;;9.35;2.22;;;;;;;9.88;55.07;99003.38;1088002;54;20041;-78
2022/02/18 21:08:01;;;;;;;7.68;1.70;;;;;;;9.94;55.27;99013.38;1087574;54;20038;-79
2022/02/18 21:09:04;;;;;;;7.10;1.60;;;;;;;9.98;54.85;99014.72;1087115;54;20042;-78
2022/02/18 21:10:09;;;;;;;7.30;1.80;;;;;;;10.03;54.80;99006.22;1087221;54;20042;-80
2022/02/18 21:11:14;;;;;;;6.00;1.50;;;;;;;10.08;54.90;99009.22;1087562;54;20038;-78
2022/02/18 21:12:18;;;;;;;6.07;1.65;;;;;;;10.09;54.86;99010.88;1087604;54;20034;-79
2022/02/18 21:13:22;;;;;;;6.82;1.60;;;;;;;9.96;54.93;99017.59;1093137;39;20493;-79
2022/02/18 21:14:29;;;;;;;6.82;1.63;;;;;;;9.87;55.07;99018.53;1087495;54;20057;-81
2022/02/18 21:15:34;;;;;;;10.02;2.15;;;;;;;9.89;55.06;99018.41;1087161;54;20026;-81
2022/02/18 21:16:40;;;;;;;6.63;1.70;;;;;;;9.85;54.86;99039.25;1087300;54;20038;-80
2022/02/18 21:17:45;;;;;;;8.10;1.98;;;;;;;9.88;54.78;99032.75;1088250;39;20413;-79
2022/02/18 21:18:49;;;;;;;9.65;1.50;;;;;;;9.79;55.07;99032.75;1087241;54;20077;-80
2022/02/18 21:19:58;;;;;;;9.30;2.13;;;;;;;9.79;55.07;99043.41;1087376;54;20027;-80
2022/02/18 21:21:02;;;;;;;5.85;1.25;;;;;;;9.83;55.15;99051.94;1087505;54;20580;-80
2022/02/18 21:22:07;;;;;;;7.45;1.67;;;;;;;9.83;55.15;99043.91;1087621;54;20038;-79
2022/02/18 21:23:09;;;;;;;5.57;1.80;;;;;;;9.81;55.13;99028.06;1087642;54;20031;-79
2022/02/18 21:24:14;;;;;;;9.55;2.15;;;;;;;9.92;54.89;99048.25;1087471;54;20030;-80
2022/02/18 21:25:16;;;;;;;10.65;2.40;;;;;;;9.81;54.62;99037.91;1088654;47;20046;-78
2022/02/18 21:26:20;;;;;;;8.05;1.98;;;;;;;9.74;54.89;99047.56;1087189;54;20945;-79
2022/02/18 21:27:23;;;;;;;7.72;1.77;;;;;;;9.67;55.11;99050.06;1087772;54;20038;-79
2022/02/18 21:28:27;;;;;;;10.45;2.03;;;;;;;9.79;55.29;99063.91;1087651;54;20034;-78
2022/02/18 21:29:32;;;;;;;8.05;1.58;;;;;;;9.70;55.12;99060.41;1088885;47;20053;-79
2022/02/18 21:30:34;;;;;;;9.13;2.42;;;;;;;9.71;55.31;99050.56;1087594;54;20038;-80
2022/02/18 21:31:39;;;;;;;6.45;1.50;;;;;;;9.68;55.63;99063.22;1087789;54;20030;-79
2022/02/18 21:32:40;;;;;;;7.40;1.73;;;;;;;9.63;55.82;99070.06;1087784;54;20027;-78
2022/02/18 21:33:44;;;;;;;6.80;1.98;;;;;;;9.80;55.46;99062.91;1087566;47;20040;-78
2022/02/18 21:34:52;;;;;;;6.35;1.60;;;;;;;9.64;55.54;99079.72;1087859;54;20069;-79
2022/02/18 21:35:53;;;;;;;6.55;1.70;;;;;;;9.83;55.36;99083.94;1087842;54;20050;-78
2022/02/18 21:36:58;;;;;;;7.70;1.77;;;;;;;9.77;55.55;99076.63;1087886;54;20034;-79
2022/02/18 21:38:03;;;;;;;7.95;1.70;;;;;;;9.73;55.30;99093.94;1090408;47;20573;-78
2022/02/18 21:39:04;;;;;;;7.75;2.55;;;;;;;9.69;55.33;99090.75;1087957;54;20038;-79
2022/02/18 21:40:10;;;;;;;6.45;2.00;;;;;;;9.82;55.23;99080.44;1087696;54;20596;-78
2022/02/18 21:41:12;;;;;;;5.80;1.98;;;;;;;9.66;55.69;99099.09;1087926;54;20031;-79
2022/02/18 21:42:16;;;;;;;9.20;1.65;;;;;;;9.65;55.51;99082.25;1087158;54;20038;-79
2022/02/18 21:43:20;;;;;;;7.93;1.95;;;;;;;9.61;55.54;99088.91;1087299;54;20038;-79
2022/02/18 21:44:23;;;;;;;7.47;1.70;;;;;;;9.55;55.73;99088.69;1087557;54;20035;-79
2022/02/18 21:45:27;;;;;;;7.05;1.95;;;;;;;9.68;55.41;99083.75;1087548;47;20042;-78
2022/02/18 21:46:31;;;;;;;7.60;2.00;;;;;;;9.59;55.28;99090.88;1087051;54;20031;-80
2022/02/18 21:47:37;;;;;;;7.75;2.22;;;;;;;9.57;55.13;99089.38;1087726;47;20106;-79
2022/02/18 21:48:41;;;;;;;8.93;1.58;;;;;;;9.57;54.81;99102.72;1086963;54;20061;-80
2022/02/18 21:50:11;;;;;;;6.40;2.20;;;;;;;9.57;54.83;99094.72;1086946;54;20026;-81
2022/02/18 21:51:12;;;;;;;8.52;1.92;;;;;;;9.64;54.59;99087.72;1087071;54;20047;-78
2022/02/18 21:52:17;;;;;;;4.80;1.73;;;;;;;9.59;54.07;99106.06;1086832;54;20026;-81
2022/02/18 21:53:21;;;;;;;8.02;2.08;;;;;;;9.63;54.14;99112.78;1087529;39;20457;-79
2022/02/18 21:54:23;;;;;;;7.72;1.77;;;;;;;9.57;54.21;99094.72;1086866;54;20034;-80
2022/02/18 21:55:27;;;;;;;10.65;2.58;;;;;;;9.48;53.58;99100.03;1086725;54;20590;-80
2022/02/18 21:56:31;;;;;;;6.93;1.88;;;;;;;9.71;53.70;99101.25;1086714;54;20061;-80
2022/02/18 21:57:33;;;;;;;7.90;1.77;;;;;;;9.67;53.53;99114.09;1086623;54;20065;-79
2022/02/18 21:58:39;;;;;;;8.00;2.10;;;;;;;9.63;53.78;99108.25;1086748;54;20026;-81
2022/02/18 21:59:41;;;;;;;7.28;1.80;;;;;;;9.70;53.65;99113.78;1087361;39;20426;-78
2022/02/18 22:00:46;;;;;;;5.53;1.55;;;;;;;9.79;53.64;99123.50;1090481;31;20721;-79
2022/02/18 22:01:48;;;;;;;5.82;1.33;;;;;;;9.81;53.59;99116.16;1087018;54;20031;-78
2022/02/18 22:02:52;;;;;;;8.95;2.40;;;;;;;9.61;53.65;99101.41;1087259;54;20034;-79
2022/02/18 22:03:54;;;;;;;9.98;2.17;;;;;;;9.56;53.87;99117.06;1086885;54;20034;-78
2022/02/18 22:04:58;;;;;;;7.28;1.52;;;;;;;9.55;54.12;99132.25;1087036;54;20043;-80
2022/02/18 22:06:07;;;;;;;8.15;1.83;;;;;;;9.49;54.35;99123.03;1087199;54;20058;-79
2022/02/18 22:07:09;;;;;;;6.20;1.73;;;;;;;9.61;54.15;99126.25;1087257;54;20038;-79
2022/02/18 22:08:13;;;;;;;6.75;1.70;;;;;;;9.67;53.96;99124.78;1087227;54;20056;-79
2022/02/18 22:09:16;;;;;;;7.43;1.90;;;;;;;9.67;54.15;99125.63;1087213;54;20553;-78
2022/02/18 22:10:20;;;;;;;8.55;2.17;;;;;;;9.62;54.42;99125.25;1086641;54;20034;-79
2022/02/18 22:11:26;;;;;;;8.57;2.15;;;;;;;9.47;54.30;99113.53;1087296;54;20030;-79
2022/02/18 22:12:28;;;;;;;9.27;2.15;;;;;;;9.57;54.37;99132.91;1087001;46;20026;-80
2022/02/18 22:13:35;;;;;;;8.15;1.88;;;;;;;9.51;54.84;99130.88;1086702;54;20038;-80
2022/02/18 22:14:37;;;;;;;6.97;2.05;;;;;;;9.49;54.83;99128.38;1086060;54;20039;-80
2022/02/18 22:15:44;;;;;;;7.20;1.88;;;;;;;9.58;54.47;99128.41;1086170;54;20034;-79
2022/02/18 22:16:45;;;;;;;7.00;2.15;;;;;;;9.52;54.80;99133.41;1085757;54;20030;-80
2022/02/18 22:17:55;;;;;;;9.43;1.58;;;;;;;9.54;54.49;99135.06;1085952;39;20437;-78
2022/02/18 22:18:57;;;;;;;11.20;1.92;;;;;;;9.57;54.39;99137.41;1085976;46;20581;-78
2022/02/18 22:21:46;;;;;;;8.63;1.60;;;;;;;9.57;53.79;99140.06;1087647;54;20061;-81
2022/02/18 22:22:47;;;;;;;8.43;1.65;;;;;;;9.59;53.85;99140.75;1088260;54;20034;-79
2022/02/18 22:24:07;;;;;;;6.78;1.50;;;;;;;9.50;53.79;99151.41;1087960;54;20049;-78
2022/02/18 22:25:09;;;;;;;6.95;2.22;;;;;;;9.39;54.15;99150.84;1087495;54;20041;-78
2022/02/18 22:26:13;;;;;;;8.88;1.90;;;;;;;9.56;53.87;99144.59;1087143;54;21058;-78
2022/02/18 22:27:15;;;;;;;9.40;2.00;;;;;;;9.50;53.66;99148.72;1087202;54;20068;-77
2022/02/18 22:28:19;;;;;;;8.63;1.90;;;;;;;9.59;53.82;99156.78;1087076;54;20030;-78
2022/02/18 22:29:22;;;;;;;8.18;1.77;;;;;;;9.68;53.42;99161.16;1087183;54;20034;-77
2022/02/18 22:30:27;;;;;;;7.80;1.95;;;;;;;9.50;53.49;99170.06;1087320;54;20045;-77
2022/02/18 22:31:28;;;;;;;8.20;1.80;;;;;;;9.54;53.41;99172.44;1087107;54;20994;-77
2022/02/18 22:32:33;;;;;;;9.27;1.98;;;;;;;9.56;53.17;99159.75;1086190;54;20038;-79
2022/02/18 22:33:37;;;;;;;10.38;3.00;;;;;;;9.46;53.37;99176.72;1086444;54;20038;-79
2022/02/18 22:34:41;;;;;;;8.57;1.67;;;;;;;9.39;53.03;99170.34;1086717;54;20034;-77
2022/02/18 22:35:45;;;;;;;7.95;1.65;;;;;;;9.49;52.82;99173.72;1088248;39;20279;-78
2022/02/18 22:36:52;;;;;;;8.73;2.28;;;;;;;9.56;52.55;99178.41;1086665;46;20094;-78
2022/02/18 22:37:53;;;;;;;9.15;1.98;;;;;;;9.42;52.23;99178.03;1086851;54;20049;-78
2022/02/18 22:38:58;;;;;;;6.28;1.75;;;;;;;9.50;51.94;99179.91;1086728;54;20098;-77
2022/02/18 22:39:59;;;;;;;8.73;1.92;;;;;;;9.44;51.64;99173.38;1086872;54;20579;-78
2022/02/18 22:41:04;;;;;;;11.88;2.40;;;;;;;9.42;51.20;99179.84;1087198;54;20771;-78
2022/02/18 22:42:06;;;;;;;5.93;1.77;;;;;;;9.56;51.07;99176.59;1086474;54;20098;-80
2022/02/18 22:43:10;;;;;;;10.50;1.98;;;;;;;9.45;51.03;99179.53;1086196;54;20026;-80
2022/02/18 22:44:19;;;;;;;10.45;2.28;;;;;;;9.38;50.99;99192.69;1086724;54;20038;-82
2022/02/18 22:45:23;;;;;;;6.57;1.83;;;;;;;9.37;51.13;99183.00;1085871;54;20027;-79
2022/02/18 22:46:26;;;;;;;5.85;1.63;;;;;;;9.47;51.07;99193.56;1085936;54;20053;-79
2022/02/18 22:47:30;;;;;;;8.80;1.77;;;;;;;9.51;50.20;99185.09;1085977;46;20042;-78
2022/02/18 22:48:31;;;;;;;8.13;1.65;;;;;;;9.61;50.07;99194.81;1086296;39;20452;-78
2022/02/18 22:49:36;;;;;;;5.82;1.52;;;;;;;9.49;50.41;99200.41;1085182;54;20061;-79
2022/02/18 22:50:38;;;;;;;7.20;1.90;;;;;;;9.42;50.18;99196.72;1084924;54;20038;-80
2022/02/18 22:51:42;;;;;;;9.02;2.10;;;;;;;9.46;50.71;99198.06;1085262;54;20038;-80
2022/02/18 22:52:47;;;;;;;8.10;2.38;;;;;;;9.41;49.64;99192.38;1085331;54;20069;-79
2022/02/18 22:53:51;;;;;;;7.53;1.85;;;;;;;9.48;49.62;99201.41;1084803;54;20041;-79
2022/02/18 22:54:52;;;;;;;6.05;2.20;;;;;;;9.55;49.56;99200.75;1084393;54;20061;-79
2022/02/18 22:55:57;;;;;;;8.57;2.33;;;;;;;9.40;49.14;99209.38;1085985;39;20434;-80
2022/02/18 22:56:58;;;;;;;7.75;2.17;;;;;;;9.41;48.77;99200.38;1085245;54;20041;-79
2022/02/18 22:58:02;;;;;;;7.25;1.80;;;;;;;9.50;48.71;99199.41;1085066;54;20073;-82
2022/02/18 22:59:06;;;;;;;6.95;1.80;;;;;;;9.49;48.70;99205.75;1085452;54;20066;-79
2022/02/18 23:00:18;;;;;;;7.18;2.08;;;;;;;9.30;47.93;99192.63;1086041;54;20089;-79
2022/02/18 23:01:21;;;;;;;7.70;2.05;;;;;;;9.27;48.19;99192.94;1086933;54;20034;-79
2022/02/18 23:02:25;;;;;;;7.95;2.00;;;;;;;9.30;47.81;99201.50;1086733;54;20038;-78
2022/02/18 23:03:30;;;;;;;10.80;2.40;;;;;;;9.26;47.33;99197.44;1086608;54;20038;-77
2022/02/18 23:04:34;;;;;;;8.27;2.10;;;;;;;9.40;47.35;99193.38;1086085;54;20655;-78
2022/02/18 23:05:36;;;;;;;9.05;2.17;;;;;;;9.32;47.35;99190.66;1085682;54;20038;-78
2022/02/18 23:06:40;;;;;;;10.23;2.05;;;;;;;9.39;47.45;99196.19;1085986;54;20045;-77
2022/02/18 23:07:43;;;;;;;6.50;1.88;;;;;;;9.32;47.43;99194.13;1086111;54;20045;-79
2022/02/18 23:08:49;;;;;;;9.63;3.10;;;;;;;9.19;47.47;99202.56;1086414;54;20069;-78
2022/02/18 23:09:51;;;;;;;7.63;2.38;;;;;;;9.36;47.31;99200.00;1086357;54;20065;-78
2022/02/18 23:10:55;;;;;;;9.95;2.63;;;;;;;9.26;47.36;99209.97;1086046;54;20062;-78
2022/02/18 23:12:00;;;;;;;10.30;2.60;;;;;;;9.36;47.68;99208.00;1086176;54;20042;-78
2022/02/18 23:13:02;;;;;;;9.38;1.95;;;;;;;9.17;47.94;99204.53;1086260;54;20062;-79
2022/02/18 23:14:07;;;;;;;13.10;2.55;;;;;;;9.13;48.26;99219.19;1086271;54;20608;-78
2022/02/18 23:15:09;;;;;;;11.02;2.00;;;;;;;9.21;48.09;99211.25;1086110;54;20039;-79
2022/02/18 23:16:13;;;;;;;9.60;2.42;;;;;;;9.21;48.30;99219.25;1086175;54;20050;-79
2022/02/18 23:17:15;;;;;;;8.43;2.10;;;;;;;9.17;48.32;99228.53;1086067;54;20038;-77
2022/02/18 23:18:20;;;;;;;9.77;2.80;;;;;;;9.26;48.23;99228.63;1086385;54;20047;-78
2022/02/18 23:19:25;;;;;;;10.98;3.15;;;;;;;9.08;49.08;99232.16;1086364;54;20035;-79
2022/02/18 23:20:27;;;;;;;9.90;2.22;;;;;;;9.16;48.63;99231.38;1086186;54;20038;-78
2022/02/18 23:21:31;;;;;;;11.52;2.47;;;;;;;9.05;49.20;99233.28;1086054;54;20745;-78
2022/02/18 23:22:33;;;;;;;6.43;2.03;;;;;;;9.16;48.90;99237.53;1085779;54;20066;-78
2022/02/18 23:23:37;;;;;;;6.18;1.80;;;;;;;9.18;49.08;99245.41;1085907;54;20034;-78
2022/02/18 23:24:45;;;;;;;6.90;1.73;;;;;;;9.21;48.57;99245.91;1085989;54;20055;-79
2022/02/18 23:25:46;;;;;;;9.05;2.28;;;;;;;9.14;49.03;99241.34;1086200;54;20042;-77
2022/02/18 23:26:51;;;;;;;9.18;2.13;;;;;;;8.98;48.97;99231.41;1086339;54;20031;-77
2022/02/18 23:27:52;;;;;;;12.00;2.60;;;;;;;8.93;48.54;99241.69;1085929;54;20066;-78
2022/02/18 23:28:57;;;;;;;8.55;1.77;;;;;;;9.11;48.69;99242.50;1085762;54;21208;-78
2022/02/18 23:29:58;;;;;;;8.43;2.38;;;;;;;9.09;48.64;99252.50;1086149;54;20042;-78
2022/02/18 23:31:02;;;;;;;7.95;1.98;;;;;;;9.13;48.54;99256.53;1086129;54;20056;-81
2022/02/18 23:32:05;;;;;;;10.45;2.13;;;;;;;9.13;48.62;99253.88;1085900;54;20038;-79
2022/02/18 23:33:09;;;;;;;10.77;2.40;;;;;;;8.97;48.78;99251.06;1086248;46;20060;-79